Time;durP1;ratioP1;P1;durP2;ratioP2;P2;SDS_P1;SDS_P2;PMS_P1;PMS_P2;Temp;Humidity;BMP_temperature;BMP_pressure;BME280_temperature;BME280_humidity;BME280_pressure;Samples;Min_cycle;Max_cycle;Signal;HPM_P1;HPM_P2
2021/10/27 00:01:57;;;;;;;38.35;25.35;;;;;;;9.86;81.46;101287.67;1740944;80;25860;-81
2021/10/27 00:04:24;;;;;;;41.42;25.12;;;;;;;9.82;81.63;101287.17;1787320;80;25892;-80
2021/10/27 00:06:51;;;;;;;38.90;24.60;;;;;;;9.77;81.84;101290.02;1730393;80;26681;-80
2021/10/27 00:09:18;;;;;;;39.35;25.57;;;;;;;9.71;82.04;101286.67;1730904;81;25831;-80
2021/10/27 00:11:45;;;;;;;37.20;23.80;;;;;;;9.68;82.18;101288.32;1678316;83;27476;-81
2021/10/27 00:14:12;;;;;;;35.33;23.10;;;;;;;9.63;82.38;101290.64;1718056;83;25900;-80
2021/10/27 00:16:40;;;;;;;37.20;24.75;;;;;;;9.60;82.58;101290.46;1696007;81;25861;-81
2021/10/27 00:19:07;;;;;;;38.58;25.00;;;;;;;9.59;82.51;101295.48;1723855;81;25824;-80
2021/10/27 00:21:34;;;;;;;37.73;25.25;;;;;;;9.59;82.50;101292.81;1727801;81;25942;-80
2021/10/27 00:24:01;;;;;;;39.13;25.95;;;;;;;9.58;82.47;101297.00;1723010;82;27660;-80
2021/10/27 00:26:28;;;;;;;38.53;25.15;;;;;;;9.56;82.46;101293.66;1674797;81;26596;-80
2021/10/27 00:28:55;;;;;;;33.33;22.77;;;;;;;9.53;82.44;101289.95;1678465;81;25896;-80
2021/10/27 00:31:23;;;;;;;35.65;24.80;;;;;;;9.51;82.57;101295.48;1701660;81;26562;-80
2021/10/27 00:33:50;;;;;;;33.08;23.62;;;;;;;9.47;82.53;101295.47;1736852;81;26066;-80
2021/10/27 00:36:19;;;;;;;40.75;24.25;;;;;;;9.46;82.68;101288.43;1700599;81;27627;-80
2021/10/27 00:38:47;;;;;;;38.10;24.40;;;;;;;9.42;82.61;101294.27;1726204;81;26466;-80
2021/10/27 00:41:14;;;;;;;37.20;25.55;;;;;;;9.40;82.82;101292.25;1725725;81;26504;-80
2021/10/27 00:43:42;;;;;;;40.12;24.25;;;;;;;9.38;82.75;101296.92;1746370;81;26384;-80
2021/10/27 00:46:21;;;;;;;37.65;23.73;;;;;;;9.37;82.83;101289.39;1725345;81;25875;-80
2021/10/27 00:48:50;;;;;;;38.20;24.75;;;;;;;9.37;82.72;101292.59;1725626;81;28149;-80
2021/10/27 00:51:18;;;;;;;31.85;23.57;;;;;;;9.33;82.73;101293.39;1697623;82;25808;-79
2021/10/27 00:53:47;;;;;;;39.40;23.92;;;;;;;9.32;82.84;101293.08;1748052;81;25752;-79
2021/10/27 00:56:16;;;;;;;37.93;24.82;;;;;;;9.29;82.90;101290.71;1702445;82;25869;-80
2021/10/27 00:58:44;;;;;;;36.30;24.00;;;;;;;9.27;82.93;101297.56;1726202;81;25898;-80
2021/10/27 01:01:11;;;;;;;38.30;24.25;;;;;;;9.26;83.07;101291.02;1703364;81;27434;-82
2021/10/27 01:03:38;;;;;;;37.23;24.25;;;;;;;9.25;83.04;101297.38;1725365;82;25884;-81
2021/10/27 01:06:05;;;;;;;38.30;25.05;;;;;;;9.21;83.05;101303.56;1676393;82;25364;-80
2021/10/27 01:08:34;;;;;;;40.52;26.73;;;;;;;9.21;83.17;101305.39;1718842;82;25840;-80
2021/10/27 01:11:01;;;;;;;35.38;24.40;;;;;;;9.19;83.34;101306.90;1671383;83;26584;-79
2021/10/27 01:13:28;;;;;;;39.83;26.17;;;;;;;9.19;83.46;101307.39;1735925;82;27255;-80
2021/10/27 01:15:55;;;;;;;37.00;25.62;;;;;;;9.18;83.42;101301.20;1688696;81;26493;-80
2021/10/27 01:18:23;;;;;;;37.67;24.55;;;;;;;9.17;83.96;101300.03;1692637;82;26468;-80
2021/10/27 01:20:50;;;;;;;41.10;25.72;;;;;;;9.16;83.78;101303.69;1697831;81;25856;-80
2021/10/27 01:23:17;;;;;;;35.17;24.00;;;;;;;9.17;83.95;101301.37;1751675;81;26515;-82
2021/10/27 01:25:44;;;;;;;40.08;25.55;;;;;;;9.17;84.00;101298.69;1727829;81;27497;-82
2021/10/27 01:28:11;;;;;;;35.08;24.00;;;;;;;9.18;83.97;101296.34;1702526;81;26034;-80
2021/10/27 01:30:38;;;;;;;38.67;25.45;;;;;;;9.20;83.96;101298.36;1697616;81;25830;-81
2021/10/27 01:33:05;;;;;;;37.55;25.32;;;;;;;9.20;84.05;101299.69;1748735;81;25815;-81
2021/10/27 01:35:32;;;;;;;36.45;25.95;;;;;;;9.19;84.04;101303.38;1691768;81;26587;-80
2021/10/27 01:37:59;;;;;;;39.18;26.00;;;;;;;9.20;84.13;101306.38;1669832;81;27552;-80
2021/10/27 01:40:26;;;;;;;41.65;25.92;;;;;;;9.21;84.23;101319.60;1690778;81;25939;-80
2021/10/27 01:42:55;;;;;;;41.15;24.02;;;;;;;9.20;84.23;101319.25;1726993;81;26623;-80
2021/10/27 01:45:29;;;;;;;43.40;26.10;;;;;;;9.20;84.39;101313.90;1748471;81;25995;-80
2021/10/27 01:47:58;;;;;;;41.80;26.37;;;;;;;9.20;84.36;101313.90;1703183;81;25878;-80
2021/10/27 01:50:25;;;;;;;37.03;25.00;;;;;;;9.23;84.41;101314.09;1680242;81;28419;-80
2021/10/27 01:52:52;;;;;;;37.23;24.57;;;;;;;9.19;84.40;101314.91;1727054;81;26519;-81
2021/10/27 01:55:20;;;;;;;34.45;24.23;;;;;;;9.18;84.38;101315.05;1692880;81;25804;-80
2021/10/27 01:57:48;;;;;;;40.23;24.52;;;;;;;9.17;84.32;101309.38;1668101;83;26016;-80
2021/10/27 02:00:15;;;;;;;38.30;25.27;;;;;;;9.17;84.36;101317.41;1694065;81;25823;-79
2021/10/27 02:02:42;;;;;;;40.67;25.97;;;;;;;9.15;84.39;101316.20;1752351;81;28305;-80
2021/10/27 02:05:09;;;;;;;40.00;26.45;;;;;;;9.12;84.28;101315.20;1750437;81;25788;-80
2021/10/27 02:07:36;;;;;;;42.65;26.20;;;;;;;9.10;84.14;101318.54;1676608;81;25830;-79
2021/10/27 02:10:07;;;;;;;45.23;26.75;;;;;;;9.10;84.20;101311.86;1664085;83;25867;-81
2021/10/27 02:12:40;;;;;;;38.78;24.95;;;;;;;9.10;84.10;101320.37;1735733;81;25845;-80
2021/10/27 02:15:10;;;;;;;40.30;26.00;;;;;;;9.08;84.08;101319.69;1701299;83;27645;-82
2021/10/27 02:17:38;;;;;;;36.95;24.65;;;;;;;9.03;83.99;101321.99;1650779;82;26009;-80
2021/10/27 02:20:07;;;;;;;36.65;24.85;;;;;;;9.00;83.99;101321.80;1678409;83;26534;-80
2021/10/27 02:22:36;;;;;;;38.70;25.35;;;;;;;8.96;84.10;101324.98;1687794;82;26632;-80
2021/10/27 02:25:04;;;;;;;43.52;26.02;;;;;;;8.93;84.14;101324.80;1721764;82;25897;-80
2021/10/27 02:27:31;;;;;;;40.52;27.10;;;;;;;8.91;84.14;101322.78;1675453;83;28041;-80
2021/10/27 02:29:58;;;;;;;39.67;26.17;;;;;;;8.91;84.01;101321.45;1630949;83;26570;-80
2021/10/27 02:32:25;;;;;;;39.83;25.55;;;;;;;8.94;84.09;101320.30;1686247;82;25832;-80
2021/10/27 02:34:52;;;;;;;37.63;25.02;;;;;;;8.93;83.89;101321.28;1702476;82;25826;-80
2021/10/27 02:37:19;;;;;;;42.55;25.27;;;;;;;8.89;83.89;101321.27;1653051;82;26181;-81
2021/10/27 02:39:46;;;;;;;41.23;24.55;;;;;;;8.85;83.97;101321.24;1648660;83;27542;-80
2021/10/27 02:42:15;;;;;;;37.58;25.05;;;;;;;8.79;83.90;101320.02;1724936;82;25858;-80
2021/10/27 02:44:42;;;;;;;38.95;26.40;;;;;;;8.79;84.04;101324.02;1678366;82;25847;-80
2021/10/27 02:47:10;;;;;;;36.50;25.17;;;;;;;8.77;83.94;101319.34;1664560;84;26417;-80
2021/10/27 02:49:39;;;;;;;36.73;25.05;;;;;;;8.75;84.10;101321.33;1698041;83;25827;-80
2021/10/27 02:52:06;;;;;;;39.58;25.48;;;;;;;8.72;84.15;101316.81;1705365;83;28394;-80
2021/10/27 02:54:33;;;;;;;42.08;26.10;;;;;;;8.68;84.13;101311.45;1680913;82;25570;-80
2021/10/27 02:57:01;;;;;;;46.00;26.10;;;;;;;8.66;84.11;101312.11;1680057;83;25661;-81
2021/10/27 02:59:28;;;;;;;42.65;25.77;;;;;;;8.64;84.18;101320.77;1642431;82;26456;-80
2021/10/27 03:01:55;;;;;;;38.02;25.75;;;;;;;8.64;84.25;101323.45;1723743;82;25537;-80
2021/10/27 03:04:22;;;;;;;40.67;25.55;;;;;;;8.62;84.25;101326.77;1669081;83;27499;-80
2021/10/27 03:06:49;;;;;;;40.00;26.50;;;;;;;8.60;84.16;101332.24;1671850;84;25994;-80
2021/10/27 03:09:16;;;;;;;42.73;27.42;;;;;;;8.59;84.24;101332.41;1651024;83;25365;-80
2021/10/27 03:11:44;;;;;;;37.45;25.40;;;;;;;8.54;84.17;101339.06;1724694;81;26571;-79
2021/10/27 03:14:11;;;;;;;45.85;27.17;;;;;;;8.53;84.28;101337.37;1727758;81;25831;-80
2021/10/27 03:16:38;;;;;;;39.15;26.00;;;;;;;8.49;84.31;101344.51;1727203;81;27314;-81
2021/10/27 03:19:06;;;;;;;46.55;28.32;;;;;;;8.46;84.29;101344.83;1719786;81;26456;-81
2021/10/27 03:21:33;;;;;;;38.45;25.65;;;;;;;8.46;84.34;101343.50;1729292;81;26352;-81
2021/10/27 03:24:00;;;;;;;40.43;25.80;;;;;;;8.45;84.21;101348.48;1729212;81;25887;-79
2021/10/27 03:26:28;;;;;;;43.98;26.25;;;;;;;8.43;84.14;101345.98;1678081;81;25897;-80
2021/10/27 03:28:55;;;;;;;44.38;26.85;;;;;;;8.42;84.05;101347.47;1681321;81;27388;-80
2021/10/27 03:31:22;;;;;;;43.02;27.42;;;;;;;8.40;83.95;101351.61;1749528;81;25796;-80
2021/10/27 03:33:49;;;;;;;40.30;27.77;;;;;;;8.37;83.92;101351.94;1668407;83;25809;-81
2021/10/27 03:36:16;;;;;;;38.10;25.37;;;;;;;8.33;84.04;101347.91;1679183;82;25805;-81
2021/10/27 03:38:43;;;;;;;40.23;26.48;;;;;;;8.33;83.97;101347.06;1693803;81;26553;-81
2021/10/27 03:41:10;;;;;;;37.90;25.70;;;;;;;8.30;84.02;101356.20;1751152;81;27605;-80
2021/10/27 03:43:37;;;;;;;41.28;26.07;;;;;;;8.29;83.99;101349.20;1699694;83;26655;-80
2021/10/27 03:46:04;;;;;;;39.58;25.92;;;;;;;8.26;83.93;101352.17;1692998;83;25845;-80
2021/10/27 03:48:31;;;;;;;38.73;25.92;;;;;;;8.23;84.00;101347.61;1694637;81;25910;-82
2021/10/27 03:50:58;;;;;;;39.90;26.68;;;;;;;8.19;83.93;101359.07;1749541;81;25820;-80
2021/10/27 03:53:26;;;;;;;43.30;27.77;;;;;;;8.14;84.07;101356.05;1679048;82;27145;-80
2021/10/27 03:55:54;;;;;;;45.03;26.95;;;;;;;8.11;84.13;101352.33;1692914;81;25953;-80
2021/10/27 03:58:22;;;;;;;39.58;26.65;;;;;;;8.10;84.18;101352.49;1699868;81;25903;-80
2021/10/27 04:00:49;;;;;;;43.98;27.65;;;;;;;8.10;84.10;101355.16;1721553;82;25781;-79
2021/10/27 04:03:23;;;;;;;36.42;25.57;;;;;;;8.10;84.25;101361.84;1690928;82;25958;-80
2021/10/27 04:05:52;;;;;;;42.45;27.22;;;;;;;8.08;84.24;101359.33;1721642;81;28307;-80
2021/10/27 04:08:19;;;;;;;43.00;26.85;;;;;;;8.03;84.27;101366.94;1694390;81;26485;-80
2021/10/27 04:10:46;;;;;;;39.73;26.75;;;;;;;8.02;84.48;101374.58;1712638;82;25850;-80
2021/10/27 04:13:17;;;;;;;46.45;29.12;;;;;;;8.00;84.54;101371.23;1689365;83;26824;-81
2021/10/27 04:15:44;;;;;;;42.13;27.93;;;;;;;8.00;84.57;101370.41;1700066;81;25769;-80
2021/10/27 04:18:11;;;;;;;38.73;25.72;;;;;;;7.99;84.60;101376.72;1694502;81;28168;-80
2021/10/27 04:20:39;;;;;;;39.20;26.90;;;;;;;7.97;84.60;101372.88;1745522;81;25733;-80
2021/10/27 04:23:08;;;;;;;39.45;26.42;;;;;;;7.96;84.62;101371.19;1694588;81;25824;-82
2021/10/27 04:25:35;;;;;;;41.65;25.62;;;;;;;7.97;84.51;101378.70;1706224;81;26467;-80
2021/10/27 04:28:03;;;;;;;40.28;26.57;;;;;;;7.95;84.54;101380.69;1705389;81;25760;-80
2021/10/27 04:30:31;;;;;;;36.08;24.77;;;;;;;7.91;84.58;101381.98;1749702;81;27501;-80
2021/10/27 04:32:58;;;;;;;41.23;26.68;;;;;;;7.86;84.64;101385.58;1688267;81;25873;-80
2021/10/27 04:35:26;;;;;;;37.50;26.60;;;;;;;7.84;84.81;101383.56;1693115;82;26224;-80
2021/10/27 04:37:53;;;;;;;40.70;27.42;;;;;;;7.81;84.84;101383.36;1692949;81;25945;-81
2021/10/27 04:40:21;;;;;;;41.20;26.52;;;;;;;7.79;84.99;101377.34;1731249;82;25887;-80
2021/10/27 04:42:48;;;;;;;45.75;28.38;;;;;;;7.78;84.87;101373.02;1696020;81;27632;-81
2021/10/27 04:45:15;;;;;;;42.60;27.35;;;;;;;7.79;84.91;101373.34;1727366;81;26011;-80
2021/10/27 04:47:43;;;;;;;45.98;27.50;;;;;;;7.77;84.77;101368.16;1693725;81;26602;-80
2021/10/27 04:50:10;;;;;;;38.05;25.95;;;;;;;7.75;84.75;101363.48;1751359;81;25776;-80
2021/10/27 04:52:37;;;;;;;38.28;26.90;;;;;;;7.74;84.80;101358.30;1703963;81;25848;-80
2021/10/27 04:55:05;;;;;;;41.10;26.15;;;;;;;7.73;84.76;101360.13;1693745;81;27475;-80
2021/10/27 04:57:33;;;;;;;44.05;25.88;;;;;;;7.74;84.89;101367.12;1724659;81;25851;-81
2021/10/27 05:00:00;;;;;;;42.95;27.42;;;;;;;7.69;84.81;101366.75;1750130;81;25734;-80
2021/10/27 05:02:27;;;;;;;42.30;26.12;;;;;;;7.65;84.92;101369.37;1693410;82;26469;-80
2021/10/27 05:04:55;;;;;;;45.23;26.70;;;;;;;7.65;84.93;101370.70;1690814;81;25741;-80
2021/10/27 05:07:24;;;;;;;37.67;26.05;;;;;;;7.64;85.04;101376.16;1718719;81;28119;-80
2021/10/27 05:09:51;;;;;;;43.80;26.25;;;;;;;7.63;85.03;101378.50;1750520;81;26503;-82
2021/10/27 05:12:19;;;;;;;46.20;27.15;;;;;;;7.63;85.12;101383.84;1703426;80;25861;-81
2021/10/27 05:14:47;;;;;;;41.80;26.90;;;;;;;7.60;85.06;101379.63;1729700;81;25923;-80
2021/10/27 05:17:15;;;;;;;44.85;27.15;;;;;;;7.60;85.26;101376.97;1695202;81;25789;-80
2021/10/27 05:19:45;;;;;;;42.80;26.77;;;;;;;7.63;85.40;101379.84;1746431;81;28222;-80
2021/10/27 05:22:15;;;;;;;41.77;26.37;;;;;;;7.64;85.29;101381.02;1693614;81;26525;-80
2021/10/27 05:24:43;;;;;;;40.65;26.12;;;;;;;7.63;85.15;101377.17;1721822;81;25784;-80
2021/10/27 05:27:10;;;;;;;43.05;27.27;;;;;;;7.65;85.19;101380.52;1692060;82;26054;-80
2021/10/27 05:29:38;;;;;;;37.45;24.40;;;;;;;7.64;85.22;101377.02;1718804;81;25994;-82
2021/10/27 05:32:06;;;;;;;40.65;25.97;;;;;;;7.63;85.20;101379.84;1691695;81;28138;-79
2021/10/27 05:34:34;;;;;;;39.85;26.10;;;;;;;7.59;85.29;101380.61;1719340;81;26058;-80
2021/10/27 05:37:01;;;;;;;40.83;26.05;;;;;;;7.59;85.33;101387.27;1663043;83;25355;-79
2021/10/27 05:39:29;;;;;;;40.20;25.15;;;;;;;7.59;85.32;101385.94;1745404;81;26953;-81
2021/10/27 05:41:57;;;;;;;36.63;25.40;;;;;;;7.59;85.42;101374.45;1700961;81;25827;-80
2021/10/27 05:44:24;;;;;;;43.15;27.67;;;;;;;7.57;85.44;101380.44;1694446;81;28088;-80
2021/10/27 05:46:52;;;;;;;33.92;24.15;;;;;;;7.54;85.52;101378.90;1703577;81;25822;-80
2021/10/27 05:49:24;;;;;;;47.15;27.22;;;;;;;7.50;85.74;101373.52;1752751;81;25900;-80
2021/10/27 05:51:55;;;;;;;38.38;25.37;;;;;;;7.49;85.95;101377.64;1704481;81;26012;-80
2021/10/27 05:57:06;;;;;;;40.95;26.75;;;;;;;7.44;86.29;101382.60;1702448;81;27378;-80
2021/10/27 05:59:34;;;;;;;40.25;27.45;;;;;;;7.44;86.62;101387.41;1729369;81;26639;-80
2021/10/27 06:02:02;;;;;;;40.03;25.30;;;;;;;7.41;86.67;101383.73;1727883;81;25741;-80
2021/10/27 06:04:29;;;;;;;37.03;24.30;;;;;;;7.43;86.83;101389.75;1718240;81;26479;-79
2021/10/27 06:06:56;;;;;;;38.42;26.17;;;;;;;7.43;87.14;101387.08;1725422;81;25899;-80
2021/10/27 06:09:23;;;;;;;40.70;27.52;;;;;;;7.44;87.48;101398.59;1748096;81;27439;-80
2021/10/27 06:11:50;;;;;;;39.55;25.88;;;;;;;7.45;87.65;101392.27;1741728;81;25813;-80
2021/10/27 06:14:17;;;;;;;40.88;25.82;;;;;;;7.47;87.94;101395.61;1729111;81;26049;-80
2021/10/27 06:16:44;;;;;;;38.88;25.68;;;;;;;7.50;88.26;101396.67;1756704;80;26457;-81
2021/10/27 06:19:11;;;;;;;45.05;28.35;;;;;;;7.52;88.51;101402.69;1680043;81;26121;-80
2021/10/27 06:21:39;;;;;;;42.00;27.50;;;;;;;7.56;88.61;101402.25;1708932;81;27524;-80
2021/10/27 06:24:07;;;;;;;44.05;26.73;;;;;;;7.61;88.73;101411.14;1757936;81;25346;-81
2021/10/27 06:26:34;;;;;;;39.70;25.60;;;;;;;7.64;88.99;101412.16;1756352;80;25989;-81
2021/10/27 06:29:05;;;;;;;41.80;27.58;;;;;;;7.67;89.03;101413.21;1732858;81;25762;-80
2021/10/27 06:31:47;;;;;;;45.52;26.90;;;;;;;7.70;88.97;101411.56;1731379;81;26614;-80
2021/10/27 06:34:30;;;;;;;48.40;27.55;;;;;;;7.73;89.08;101413.95;1754521;81;28746;-81
2021/10/27 06:47:35;;;;;;;40.55;27.42;;;;;;;8.00;89.84;101425.92;1756524;81;27593;-80
2021/10/27 06:50:02;;;;;;;45.55;27.90;;;;;;;8.12;90.51;101433.23;1696898;81;25974;-80
2021/10/27 06:52:30;;;;;;;49.35;30.60;;;;;;;8.22;90.23;101432.17;1733146;81;25864;-81
2021/10/27 06:54:57;;;;;;;39.30;26.93;;;;;;;8.33;90.61;101424.47;1758261;81;25957;-80
2021/10/27 06:57:25;;;;;;;44.53;27.15;;;;;;;8.40;90.29;101425.02;1756841;81;25776;-80
2021/10/27 07:00:02;;;;;;;43.38;26.62;;;;;;;8.47;90.48;101436.78;1697017;81;47253;-81
2021/10/27 07:05:14;;;;;;;44.33;26.48;;;;;;;8.58;90.05;101445.06;1623981;87;25534;-80
2021/10/27 07:15:36;;;;;;;38.73;24.87;;;;;;;8.69;89.63;101441.31;1723100;81;25803;-80
2021/10/27 07:18:04;;;;;;;42.13;26.62;;;;;;;8.72;89.74;101449.03;1726206;82;25955;-80
2021/10/27 07:20:31;;;;;;;45.92;27.90;;;;;;;8.75;89.56;101452.22;1718195;81;26006;-80
2021/10/27 07:23:02;;;;;;;43.42;27.87;;;;;;;8.79;89.48;101460.78;1696144;83;25863;-81
2021/10/27 07:25:37;;;;;;;42.25;27.22;;;;;;;8.82;89.47;101462.64;1695238;81;28309;-81
2021/10/27 07:28:05;;;;;;;40.12;27.07;;;;;;;8.87;89.54;101455.50;1748150;81;25848;-80
2021/10/27 07:30:32;;;;;;;45.85;27.48;;;;;;;8.93;89.43;101465.07;1726612;81;26140;-81
2021/10/27 07:33:00;;;;;;;39.83;26.37;;;;;;;8.95;89.24;101468.42;1671255;81;25858;-81
2021/10/27 07:35:38;;;;;;;39.98;26.60;;;;;;;8.96;89.14;101458.06;1702587;81;25775;-80
2021/10/27 07:40:47;;;;;;;35.48;24.50;;;;;;;9.05;89.12;101459.81;1717278;82;25993;-79
2021/10/27 07:43:19;;;;;;;39.88;25.85;;;;;;;9.10;89.48;101454.00;1696633;81;25874;-79
2021/10/27 07:45:48;;;;;;;43.15;27.15;;;;;;;9.22;89.75;101454.91;1721714;81;26452;-80
2021/10/27 07:48:16;;;;;;;39.00;26.70;;;;;;;9.37;89.80;101453.83;1751410;81;25948;-80
2021/10/27 07:50:43;;;;;;;45.73;26.70;;;;;;;9.51;89.76;101451.92;1750510;80;27376;-80
2021/10/27 07:53:13;;;;;;;38.48;26.17;;;;;;;9.60;89.27;101454.95;1671418;81;26489;-80
2021/10/27 07:55:44;;;;;;;42.58;27.00;;;;;;;9.68;89.11;101455.52;1703668;81;25716;-80
2021/10/27 07:58:14;;;;;;;40.30;25.85;;;;;;;9.74;88.86;101449.02;1728041;81;25940;-80
2021/10/27 08:00:41;;;;;;;40.73;25.27;;;;;;;9.78;88.42;101446.86;1725229;81;25924;-80
2021/10/27 08:03:10;;;;;;;35.20;25.77;;;;;;;9.84;88.41;101447.54;1665031;81;27491;-81
2021/10/27 08:05:42;;;;;;;43.30;26.73;;;;;;;9.88;88.18;101455.09;1728051;81;25870;-80
2021/10/27 08:08:13;;;;;;;39.42;26.40;;;;;;;9.92;87.93;101448.41;1744757;81;25920;-81
2021/10/27 08:10:42;;;;;;;37.53;25.27;;;;;;;9.98;88.01;101450.47;1722000;81;25776;-81
2021/10/27 08:13:10;;;;;;;43.40;27.80;;;;;;;10.07;87.97;101450.80;1675329;81;25944;-81
2021/10/27 08:15:38;;;;;;;34.63;24.20;;;;;;;10.14;87.87;101447.02;1710558;82;27597;-84
2021/10/27 08:18:14;;;;;;;38.35;24.12;;;;;;;10.25;87.72;101448.54;1753168;81;25869;-81
2021/10/27 08:20:44;;;;;;;43.40;25.60;;;;;;;10.35;88.01;101447.39;1733018;81;26022;-81
2021/10/27 08:23:15;;;;;;;37.55;25.40;;;;;;;10.46;87.86;101443.06;1683735;82;26020;-81
2021/10/27 08:25:45;;;;;;;37.30;24.65;;;;;;;10.52;87.23;101438.38;1704823;81;25814;-81
2021/10/27 08:28:17;;;;;;;34.18;22.65;;;;;;;10.55;87.05;101444.75;1754858;81;28120;-80
2021/10/27 08:33:20;;;;;;;32.00;23.27;;;;;;;10.59;86.65;101442.08;1680321;81;25818;-81
2021/10/27 08:35:49;;;;;;;37.08;23.42;;;;;;;10.61;86.69;101448.10;1748066;81;25921;-81
2021/10/27 08:38:16;;;;;;;36.77;24.30;;;;;;;10.66;86.87;101449.80;1730479;81;25849;-82
2021/10/27 08:40:45;;;;;;;39.63;26.02;;;;;;;10.72;86.50;101446.94;1727751;81;27504;-82
2021/10/27 08:43:13;;;;;;;36.88;24.52;;;;;;;10.74;86.49;101444.92;1713258;82;26611;-80
2021/10/27 08:45:41;;;;;;;33.02;22.02;;;;;;;10.78;86.60;101437.73;1733315;81;25360;-81
2021/10/27 08:48:11;;;;;;;32.13;22.60;;;;;;;10.82;86.55;101443.08;1753017;81;25852;-81
2021/10/27 08:50:39;;;;;;;31.62;22.32;;;;;;;10.87;86.49;101441.24;1733189;81;25854;-81
2021/10/27 08:53:07;;;;;;;34.23;22.75;;;;;;;10.91;86.50;101443.07;1672414;81;27589;-81
2021/10/27 08:55:37;;;;;;;35.33;23.52;;;;;;;10.94;86.33;101443.59;1758501;81;25785;-81
2021/10/27 08:58:04;;;;;;;30.95;22.60;;;;;;;10.98;86.17;101448.95;1730892;81;26502;-81
2021/10/27 09:00:38;;;;;;;35.40;24.20;;;;;;;11.05;86.36;101446.43;1724466;81;25891;-81
2021/10/27 09:03:28;;;;;;;31.55;21.57;;;;;;;11.11;86.25;101448.43;1678380;81;25821;-81
2021/10/27 09:39:22;;;;;;;27.93;20.40;;;;;;;11.51;84.20;101448.34;1747492;81;25719;-80
2021/10/27 09:41:46;;;;;;;32.23;21.25;;;;;;;11.51;84.38;101447.84;1749071;81;26679;-81
2021/10/27 09:56:40;;;;;;;29.00;20.43;;;;;;;11.69;83.54;101448.16;1681207;81;26626;-80
2021/10/27 10:06:40;;;;;;;26.07;18.98;;;;;;;11.89;84.08;101452.93;1701179;81;25312;-81
2021/10/27 10:09:15;;;;;;;25.97;18.73;;;;;;;11.95;83.77;101443.36;1673378;83;26648;-81
2021/10/27 10:11:42;;;;;;;26.95;17.45;;;;;;;12.00;83.37;101444.49;1720917;82;25767;-80
2021/10/27 10:14:12;;;;;;;31.12;18.87;;;;;;;12.06;83.45;101443.78;1748444;81;27445;-80
2021/10/27 10:16:50;;;;;;;25.30;17.77;;;;;;;12.13;83.24;101445.27;1719238;82;25934;-80
2021/10/27 10:19:21;;;;;;;29.72;18.23;;;;;;;12.19;83.15;101444.05;1680769;83;25945;-81
2021/10/27 10:21:55;;;;;;;27.42;18.45;;;;;;;12.28;83.47;101444.34;1735262;82;25857;-82
2021/10/27 10:24:28;;;;;;;24.02;16.42;;;;;;;12.37;82.63;101449.16;1732850;82;25856;-81
2021/10/27 10:26:56;;;;;;;21.45;13.62;;;;;;;12.46;82.51;101453.97;1716297;82;27479;-81
2021/10/27 10:29:47;;;;;;;28.83;16.82;;;;;;;12.53;81.78;101453.06;1707301;81;26014;-81
2021/10/27 10:32:31;;;;;;;25.95;15.93;;;;;;;12.58;81.67;101445.81;1735866;81;25897;-82
2021/10/27 10:35:29;;;;;;;24.15;15.15;;;;;;;12.61;81.47;101446.31;1743519;81;25794;-81
2021/10/27 10:38:04;;;;;;;22.05;15.98;;;;;;;12.67;81.83;101442.06;1692640;82;25927;-82
2021/10/27 10:40:44;;;;;;;21.02;14.78;;;;;;;12.72;81.24;101435.14;1694658;82;27183;-81
2021/10/27 10:43:40;;;;;;;22.95;15.72;;;;;;;12.75;81.34;101430.73;1745988;80;25791;-82
2021/10/27 11:37:45;;;;;;;14.45;10.58;;;;;;;13.88;76.22;101414.23;1718223;81;27261;-81
2021/10/27 11:40:25;;;;;;;16.12;10.20;;;;;;;13.93;76.26;101413.68;1739747;81;25863;-82
2021/10/27 11:42:56;;;;;;;18.55;10.48;;;;;;;13.95;76.08;101407.59;1739773;80;25870;-81
2021/10/27 11:48:24;;;;;;;16.17;9.58;;;;;;;13.99;75.03;101409.38;1671915;81;26115;-82
2021/10/27 11:50:42;;;;;;;18.25;9.85;;;;;;;14.00;75.43;101406.52;1744562;81;27485;-81
2021/10/27 11:53:30;;;;;;;14.83;9.40;;;;;;;14.03;74.91;101405.31;1705152;83;26142;-82
2021/10/27 11:56:14;;;;;;;18.02;10.10;;;;;;;14.06;75.54;101410.30;1728458;81;25912;-80
2021/10/27 11:58:45;;;;;;;10.82;8.25;;;;;;;14.10;74.69;101404.35;1707615;82;26107;-81
2021/10/27 12:01:26;;;;;;;13.62;9.18;;;;;;;14.12;72.66;101413.08;1725733;82;26052;-81
2021/10/27 12:03:53;;;;;;;14.90;9.25;;;;;;;14.11;73.11;101410.58;1705477;82;27560;-80
2021/10/27 12:06:35;;;;;;;18.52;10.32;;;;;;;14.12;73.63;101404.16;1725198;82;26055;-81
2021/10/27 12:09:12;;;;;;;16.52;10.40;;;;;;;14.13;73.78;101412.57;1742378;81;25894;-81
2021/10/27 12:14:25;;;;;;;17.02;10.50;;;;;;;14.13;73.56;101410.72;1682616;82;25871;-81
2021/10/27 12:19:30;;;;;;;15.72;9.40;;;;;;;14.14;73.01;101406.98;1700743;82;25931;-82
2021/10/27 12:22:04;;;;;;;16.12;8.90;;;;;;;14.13;72.90;101407.19;1778507;80;26423;-81
2021/10/27 12:24:39;;;;;;;14.83;8.20;;;;;;;14.13;73.21;101408.53;1784315;80;26629;-81
2021/10/27 12:27:28;;;;;;;15.50;9.68;;;;;;;14.13;73.72;101407.19;1785158;79;25901;-81
2021/10/27 12:30:00;;;;;;;16.90;9.20;;;;;;;14.12;73.82;101410.38;1755925;80;27403;-81
2021/10/27 12:32:29;;;;;;;9.63;7.33;;;;;;;14.10;73.30;101409.74;1782625;79;25773;-79
2021/10/27 12:35:08;;;;;;;10.90;7.65;;;;;;;14.08;72.65;101400.17;1770742;80;25904;-80
2021/10/27 12:37:46;;;;;;;16.25;8.78;;;;;;;14.06;71.50;101403.06;1748181;81;26472;-82
2021/10/27 12:40:24;;;;;;;12.23;7.83;;;;;;;14.03;72.10;101391.84;1732957;81;26434;-81
2021/10/27 12:43:06;;;;;;;9.85;7.22;;;;;;;14.02;72.32;101383.42;1718403;82;27512;-81
2021/10/27 12:45:41;;;;;;;15.32;7.22;;;;;;;14.05;71.91;101374.98;1729522;82;25815;-82
2021/10/27 12:48:18;;;;;;;13.75;6.92;;;;;;;14.05;71.42;101359.63;1683573;83;25897;-81
2021/10/27 12:51:02;;;;;;;12.07;7.05;;;;;;;14.09;71.61;101362.28;1655203;83;26918;-81
2021/10/27 12:53:44;;;;;;;17.05;8.18;;;;;;;14.12;71.79;101357.00;1721919;83;25962;-81
2021/10/27 12:56:16;;;;;;;12.23;7.92;;;;;;;14.17;71.60;101368.05;1723705;83;27546;-82
2021/10/27 12:58:52;;;;;;;12.70;7.85;;;;;;;14.18;72.12;101373.23;1681276;83;25865;-82
2021/10/27 13:04:19;;;;;;;10.82;6.87;;;;;;;14.21;71.54;101376.07;1722996;82;26548;-82
2021/10/27 13:17:36;;;;;;;11.28;7.40;;;;;;;14.14;71.67;101389.47;1749994;80;25875;-82
2021/10/27 13:20:06;;;;;;;13.98;8.53;;;;;;;14.11;71.54;101390.38;1711756;80;25917;-81
2021/10/27 13:33:20;;;;;;;23.32;12.25;;;;;;;13.97;71.84;101396.62;1728210;81;25804;-81
2021/10/27 13:35:48;;;;;;;15.43;8.65;;;;;;;13.94;71.68;101397.86;1749337;81;27620;-81
2021/10/27 13:38:17;;;;;;;16.30;8.98;;;;;;;13.91;72.11;101391.48;1729069;81;26352;-81
2021/10/27 13:40:46;;;;;;;18.50;9.63;;;;;;;13.90;72.28;101394.69;1658811;81;25876;-81
2021/10/27 13:46:14;;;;;;;17.00;9.13;;;;;;;13.88;72.06;101390.00;1726807;81;25877;-81
2021/10/27 13:57:47;;;;;;;14.50;7.50;;;;;;;13.88;71.36;101389.16;1747052;81;25747;-81
2021/10/27 14:05:57;;;;;;;17.95;10.08;;;;;;;13.88;71.15;101387.81;1712398;81;25339;-82
2021/10/27 14:14:52;;;;;;;17.95;8.18;;;;;;;13.93;71.34;101371.42;1729186;82;28135;-82
2021/10/27 14:47:22;;;;;;;14.10;6.87;;;;;;;13.96;70.51;101371.56;1709628;81;27478;-81
2021/10/27 15:20:06;;;;;;;25.57;16.52;;;;;;;13.65;71.32;101358.34;1752413;81;26567;-82
2021/10/27 15:27:47;;;;;;;22.30;14.68;;;;;;;13.60;71.48;101358.06;1733238;81;25827;-83
2021/10/27 15:30:19;;;;;;;16.82;10.08;;;;;;;13.60;71.32;101362.09;1733574;81;26459;-83
2021/10/27 15:32:39;;;;;;;22.25;10.38;;;;;;;13.58;71.20;101358.77;1730218;81;25877;-83
2021/10/27 15:35:17;;;;;;;16.20;9.15;;;;;;;13.57;71.29;101355.77;1704294;81;28582;-83
2021/10/27 15:43:21;;;;;;;15.68;8.98;;;;;;;13.53;71.49;101354.98;1694867;83;26020;-83
2021/10/27 15:51:13;;;;;;;14.85;10.48;;;;;;;13.50;71.62;101351.30;1754510;81;25746;-83
2021/10/27 15:53:40;;;;;;;16.65;10.68;;;;;;;13.51;71.55;101357.02;1733504;81;25315;-83
2021/10/27 15:56:08;;;;;;;18.60;9.55;;;;;;;13.49;71.47;101351.84;1701543;83;25956;-83